sensor_id;sensor_type;location;lat;lon;timestamp;pressure;altitude;pressure_sealevel;temperature;humidity
35435;BME280;21556;55.782;37.528;2024-02-26T00:00:24;100801.72;;;2.14;100.00
35435;BME280;21556;55.782;37.528;2024-02-26T00:02:50;100802.09;;;2.07;100.00
35435;BME280;21556;55.782;37.528;2024-02-26T00:05:19;100804.75;;;1.95;100.00
35435;BME280;21556;55.782;37.528;2024-02-26T00:07:48;100813.25;;;2.06;100.00
35435;BME280;21556;55.782;37.528;2024-02-26T00:10:29;100811.81;;;2.23;100.00
35435;BME280;21556;55.782;37.528;2024-02-26T00:12:55;100816.13;;;1.72;100.00
35435;BME280;21556;55.782;37.528;2024-02-26T00:15:31;100804.81;;;2.08;100.00
35435;BME280;21556;55.782;37.528;2024-02-26T00:18:00;100807.28;;;2.07;100.00
35435;BME280;21556;55.782;37.528;2024-02-26T00:20:29;100812.75;;;1.98;100.00
35435;BME280;21556;55.782;37.528;2024-02-26T00:23:00;100821.25;;;1.84;100.00
35435;BME280;21556;55.782;37.528;2024-02-26T00:25:29;100799.53;;;1.57;100.00
35435;BME280;21556;55.782;37.528;2024-02-26T00:27:58;100804.53;;;1.92;100.00
35435;BME280;21556;55.782;37.528;2024-02-26T00:30:28;100808.25;;;1.71;100.00
35435;BME280;21556;55.782;37.528;2024-02-26T00:32:54;100806.09;;;1.77;100.00
35435;BME280;21556;55.782;37.528;2024-02-26T00:35:23;100804.88;;;1.72;100.00
35435;BME280;21556;55.782;37.528;2024-02-26T00:37:55;100806.59;;;1.84;100.00
35435;BME280;21556;55.782;37.528;2024-02-26T00:40:24;100796.25;;;2.09;100.00
35435;BME280;21556;55.782;37.528;2024-02-26T00:42:50;100797.88;;;1.71;100.00
35435;BME280;21556;55.782;37.528;2024-02-26T00:45:16;100797.38;;;1.63;100.00
35435;BME280;21556;55.782;37.528;2024-02-26T00:47:43;100801.13;;;1.55;100.00
35435;BME280;21556;55.782;37.528;2024-02-26T00:50:13;100797.34;;;1.75;100.00
35435;BME280;21556;55.782;37.528;2024-02-26T00:52:40;100810.75;;;1.32;100.00
35435;BME280;21556;55.782;37.528;2024-02-26T00:55:06;100794.97;;;1.41;100.00
35435;BME280;21556;55.782;37.528;2024-02-26T00:57:49;100792.94;;;1.74;100.00
35435;BME280;21556;55.782;37.528;2024-02-26T01:00:16;100790.09;;;1.57;100.00
35435;BME280;21556;55.782;37.528;2024-02-26T01:02:42;100786.03;;;1.24;100.00
35435;BME280;21556;55.782;37.528;2024-02-26T01:05:12;100784.38;;;1.50;100.00
35435;BME280;21556;55.782;37.528;2024-02-26T01:07:46;100791.81;;;1.70;100.00
35435;BME280;21556;55.782;37.528;2024-02-26T01:10:17;100794.69;;;1.86;100.00
35435;BME280;21556;55.782;37.528;2024-02-26T01:12:45;100788.72;;;1.62;100.00
35435;BME280;21556;55.782;37.528;2024-02-26T01:15:16;100795.69;;;1.63;100.00
35435;BME280;21556;55.782;37.528;2024-02-26T01:17:53;100802.00;;;1.55;100.00
35435;BME280;21556;55.782;37.528;2024-02-26T01:20:24;100795.75;;;1.77;100.00
35435;BME280;21556;55.782;37.528;2024-02-26T01:22:55;100790.56;;;1.77;100.00
35435;BME280;21556;55.782;37.528;2024-02-26T01:25:26;100797.03;;;1.33;100.00
35435;BME280;21556;55.782;37.528;2024-02-26T01:27:52;100793.41;;;1.43;100.00
35435;BME280;21556;55.782;37.528;2024-02-26T01:30:19;100807.81;;;1.39;100.00
35435;BME280;21556;55.782;37.528;2024-02-26T01:32:48;100802.81;;;1.79;100.00
35435;BME280;21556;55.782;37.528;2024-02-26T01:35:20;100798.53;;;1.55;100.00
35435;BME280;21556;55.782;37.528;2024-02-26T01:37:46;100799.09;;;1.51;100.00
35435;BME280;21556;55.782;37.528;2024-02-26T01:40:12;100793.50;;;1.69;100.00
35435;BME280;21556;55.782;37.528;2024-02-26T01:42:52;100799.19;;;1.89;100.00
35435;BME280;21556;55.782;37.528;2024-02-26T01:45:18;100789.59;;;1.63;100.00
35435;BME280;21556;55.782;37.528;2024-02-26T01:47:51;100782.00;;;1.78;100.00
35435;BME280;21556;55.782;37.528;2024-02-26T01:50:20;100790.13;;;1.71;100.00
35435;BME280;21556;55.782;37.528;2024-02-26T01:52:50;100783.44;;;1.86;100.00
35435;BME280;21556;55.782;37.528;2024-02-26T01:55:22;100785.88;;;1.71;100.00
35435;BME280;21556;55.782;37.528;2024-02-26T01:57:50;100769.03;;;1.89;100.00
35435;BME280;21556;55.782;37.528;2024-02-26T02:00:18;100774.59;;;1.96;100.00
35435;BME280;21556;55.782;37.528;2024-02-26T02:02:49;100785.50;;;1.05;100.00
35435;BME280;21556;55.782;37.528;2024-02-26T02:05:25;100778.31;;;1.49;100.00
35435;BME280;21556;55.782;37.528;2024-02-26T02:07:56;100772.94;;;1.71;100.00
35435;BME280;21556;55.782;37.528;2024-02-26T02:10:41;100763.88;;;1.78;100.00
35435;BME280;21556;55.782;37.528;2024-02-26T02:13:11;100773.69;;;1.45;100.00
35435;BME280;21556;55.782;37.528;2024-02-26T02:15:37;100778.13;;;1.34;100.00
35435;BME280;21556;55.782;37.528;2024-02-26T02:18:04;100774.13;;;1.51;100.00
35435;BME280;21556;55.782;37.528;2024-02-26T02:20:34;100763.63;;;1.86;100.00
35435;BME280;21556;55.782;37.528;2024-02-26T02:23:03;100760.75;;;1.82;100.00
35435;BME280;21556;55.782;37.528;2024-02-26T02:25:29;100769.78;;;1.75;100.00
35435;BME280;21556;55.782;37.528;2024-02-26T02:28:01;100779.47;;;1.66;100.00
35435;BME280;21556;55.782;37.528;2024-02-26T02:30:29;100754.09;;;1.60;100.00
35435;BME280;21556;55.782;37.528;2024-02-26T02:33:06;100773.47;;;1.54;100.00
35435;BME280;21556;55.782;37.528;2024-02-26T02:35:32;100786.25;;;1.27;100.00
35435;BME280;21556;55.782;37.528;2024-02-26T02:38:01;100765.09;;;1.33;100.00
35435;BME280;21556;55.782;37.528;2024-02-26T02:40:27;100762.25;;;1.41;100.00
35435;BME280;21556;55.782;37.528;2024-02-26T02:42:53;100762.53;;;1.58;100.00
35435;BME280;21556;55.782;37.528;2024-02-26T02:45:19;100772.75;;;1.31;100.00
35435;BME280;21556;55.782;37.528;2024-02-26T02:47:47;100770.38;;;1.59;100.00
35435;BME280;21556;55.782;37.528;2024-02-26T02:50:13;100768.34;;;1.30;100.00
35435;BME280;21556;55.782;37.528;2024-02-26T02:52:39;100768.50;;;1.57;100.00
35435;BME280;21556;55.782;37.528;2024-02-26T02:55:14;100774.63;;;1.46;100.00
35435;BME280;21556;55.782;37.528;2024-02-26T02:57:46;100753.38;;;1.63;100.00
35435;BME280;21556;55.782;37.528;2024-02-26T03:00:14;100764.69;;;1.77;100.00
35435;BME280;21556;55.782;37.528;2024-02-26T03:02:43;100764.13;;;1.19;100.00
35435;BME280;21556;55.782;37.528;2024-02-26T03:05:13;100757.59;;;1.24;100.00
35435;BME280;21556;55.782;37.528;2024-02-26T03:07:39;100755.22;;;1.52;100.00
35435;BME280;21556;55.782;37.528;2024-02-26T03:10:06;100758.13;;;1.32;100.00
35435;BME280;21556;55.782;37.528;2024-02-26T03:12:33;100769.56;;;1.10;100.00
35435;BME280;21556;55.782;37.528;2024-02-26T03:15:03;100748.47;;;1.79;100.00
35435;BME280;21556;55.782;37.528;2024-02-26T03:17:31;100757.50;;;1.73;100.00
35435;BME280;21556;55.782;37.528;2024-02-26T03:19:57;100745.31;;;1.58;100.00
35435;BME280;21556;55.782;37.528;2024-02-26T03:22:23;100752.38;;;1.36;100.00
35435;BME280;21556;55.782;37.528;2024-02-26T03:24:49;100746.19;;;1.34;100.00
35435;BME280;21556;55.782;37.528;2024-02-26T03:27:16;100749.28;;;1.28;100.00
35435;BME280;21556;55.782;37.528;2024-02-26T03:29:42;100754.91;;;1.23;100.00
35435;BME280;21556;55.782;37.528;2024-02-26T03:32:08;100755.56;;;1.32;100.00
35435;BME280;21556;55.782;37.528;2024-02-26T03:34:37;100761.19;;;1.26;100.00
35435;BME280;21556;55.782;37.528;2024-02-26T03:37:08;100747.09;;;1.09;100.00
35435;BME280;21556;55.782;37.528;2024-02-26T03:39:38;100754.31;;;1.27;100.00
35435;BME280;21556;55.782;37.528;2024-02-26T03:42:05;100762.88;;;1.26;100.00
35435;BME280;21556;55.782;37.528;2024-02-26T03:44:33;100754.44;;;1.28;100.00
35435;BME280;21556;55.782;37.528;2024-02-26T03:47:03;100757.34;;;0.96;100.00
35435;BME280;21556;55.782;37.528;2024-02-26T03:49:32;100751.06;;;1.29;100.00
35435;BME280;21556;55.782;37.528;2024-02-26T03:52:00;100754.91;;;1.23;100.00
35435;BME280;21556;55.782;37.528;2024-02-26T03:54:26;100750.44;;;1.20;100.00
35435;BME280;21556;55.782;37.528;2024-02-26T03:56:52;100754.47;;;1.16;100.00
35435;BME280;21556;55.782;37.528;2024-02-26T03:59:18;100760.47;;;1.04;100.00
35435;BME280;21556;55.782;37.528;2024-02-26T04:01:46;100759.03;;;0.95;100.00
35435;BME280;21556;55.782;37.528;2024-02-26T04:04:15;100757.53;;;1.11;100.00
35435;BME280;21556;55.782;37.528;2024-02-26T04:06:45;100757.66;;;1.37;100.00
35435;BME280;21556;55.782;37.528;2024-02-26T04:09:14;100758.59;;;1.26;100.00
35435;BME280;21556;55.782;37.528;2024-02-26T04:11:40;100758.41;;;1.48;100.00
35435;BME280;21556;55.782;37.528;2024-02-26T04:14:06;100751.06;;;1.29;100.00
35435;BME280;21556;55.782;37.528;2024-02-26T04:16:39;100760.50;;;1.29;100.00
35435;BME280;21556;55.782;37.528;2024-02-26T04:19:17;100759.34;;;1.00;100.00
35435;BME280;21556;55.782;37.528;2024-02-26T04:21:46;100758.16;;;0.71;100.00
35435;BME280;21556;55.782;37.528;2024-02-26T04:24:13;100771.28;;;0.98;100.00
35435;BME280;21556;55.782;37.528;2024-02-26T04:26:39;100764.84;;;0.93;100.00
35435;BME280;21556;55.782;37.528;2024-02-26T04:29:05;100763.06;;;0.92;100.00
35435;BME280;21556;55.782;37.528;2024-02-26T04:31:31;100766.91;;;0.85;100.00
35435;BME280;21556;55.782;37.528;2024-02-26T04:33:59;100760.19;;;0.64;100.00
35435;BME280;21556;55.782;37.528;2024-02-26T04:36:25;100759.91;;;0.96;100.00
35435;BME280;21556;55.782;37.528;2024-02-26T04:38:53;100754.66;;;0.94;100.00
35435;BME280;21556;55.782;37.528;2024-02-26T04:41:24;100763.88;;;0.91;100.00
35435;BME280;21556;55.782;37.528;2024-02-26T04:43:50;100761.75;;;1.22;100.00
35435;BME280;21556;55.782;37.528;2024-02-26T04:46:17;100757.72;;;0.42;100.00
35435;BME280;21556;55.782;37.528;2024-02-26T04:48:43;100755.88;;;1.00;100.00
35435;BME280;21556;55.782;37.528;2024-02-26T04:51:11;100761.94;;;0.88;100.00
35435;BME280;21556;55.782;37.528;2024-02-26T04:53:37;100756.56;;;0.50;100.00
35435;BME280;21556;55.782;37.528;2024-02-26T04:56:03;100757.78;;;0.90;100.00
35435;BME280;21556;55.782;37.528;2024-02-26T04:58:29;100757.44;;;0.86;100.00
35435;BME280;21556;55.782;37.528;2024-02-26T05:00:55;100759.94;;;0.84;100.00
35435;BME280;21556;55.782;37.528;2024-02-26T05:03:21;100763.97;;;0.92;100.00
35435;BME280;21556;55.782;37.528;2024-02-26T05:05:47;100772.63;;;0.81;100.00
35435;BME280;21556;55.782;37.528;2024-02-26T05:08:25;100756.31;;;0.94;100.00
35435;BME280;21556;55.782;37.528;2024-02-26T05:10:52;100747.09;;;0.98;100.00
35435;BME280;21556;55.782;37.528;2024-02-26T05:13:18;100742.38;;;1.04;100.00
35435;BME280;21556;55.782;37.528;2024-02-26T05:15:44;100755.59;;;1.20;100.00
35435;BME280;21556;55.782;37.528;2024-02-26T05:18:12;100758.41;;;0.51;100.00
35435;BME280;21556;55.782;37.528;2024-02-26T05:20:41;100748.50;;;0.34;100.00
35435;BME280;21556;55.782;37.528;2024-02-26T05:23:09;100744.66;;;0.87;100.00
35435;BME280;21556;55.782;37.528;2024-02-26T05:25:36;100760.72;;;0.71;100.00
35435;BME280;21556;55.782;37.528;2024-02-26T05:28:04;100760.16;;;0.87;100.00
35435;BME280;21556;55.782;37.528;2024-02-26T05:30:30;100763.66;;;0.88;100.00
35435;BME280;21556;55.782;37.528;2024-02-26T05:33:02;100739.41;;;0.74;100.00
35435;BME280;21556;55.782;37.528;2024-02-26T05:35:29;100746.94;;;0.59;100.00
35435;BME280;21556;55.782;37.528;2024-02-26T05:37:58;100745.69;;;0.54;100.00
35435;BME280;21556;55.782;37.528;2024-02-26T05:40:24;100747.25;;;0.64;100.00
35435;BME280;21556;55.782;37.528;2024-02-26T05:42:50;100752.78;;;0.45;100.00
35435;BME280;21556;55.782;37.528;2024-02-26T05:45:17;100749.88;;;0.40;100.00
35435;BME280;21556;55.782;37.528;2024-02-26T05:47:45;100749.84;;;0.64;100.00
35435;BME280;21556;55.782;37.528;2024-02-26T05:50:12;100739.41;;;0.62;100.00
35435;BME280;21556;55.782;37.528;2024-02-26T05:52:44;100750.28;;;0.23;100.00
35435;BME280;21556;55.782;37.528;2024-02-26T05:55:14;100753.66;;;0.69;100.00
35435;BME280;21556;55.782;37.528;2024-02-26T05:57:40;100752.38;;;0.99;100.00
35435;BME280;21556;55.782;37.528;2024-02-26T06:00:07;100757.91;;;0.68;100.00
35435;BME280;21556;55.782;37.528;2024-02-26T06:02:44;100754.66;;;0.83;100.00
35435;BME280;21556;55.782;37.528;2024-02-26T06:05:14;100764.97;;;1.06;100.00
35435;BME280;21556;55.782;37.528;2024-02-26T06:07:40;100756.41;;;1.07;100.00
35435;BME280;21556;55.782;37.528;2024-02-26T06:10:09;100763.25;;;1.07;100.00
35435;BME280;21556;55.782;37.528;2024-02-26T06:12:36;100748.50;;;1.17;100.00
35435;BME280;21556;55.782;37.528;2024-02-26T06:15:03;100764.97;;;1.06;100.00
35435;BME280;21556;55.782;37.528;2024-02-26T06:17:32;100757.38;;;1.21;100.00
35435;BME280;21556;55.782;37.528;2024-02-26T06:20:01;100765.41;;;1.37;100.00
35435;BME280;21556;55.782;37.528;2024-02-26T06:22:28;100770.34;;;0.98;100.00
35435;BME280;21556;55.782;37.528;2024-02-26T06:24:54;100763.94;;;1.04;100.00
35435;BME280;21556;55.782;37.528;2024-02-26T06:27:23;100764.38;;;1.10;100.00
35435;BME280;21556;55.782;37.528;2024-02-26T06:29:52;100758.03;;;1.55;100.00
35435;BME280;21556;55.782;37.528;2024-02-26T06:32:20;100755.59;;;1.08;100.00
35435;BME280;21556;55.782;37.528;2024-02-26T06:34:52;100758.41;;;1.11;100.00
35435;BME280;21556;55.782;37.528;2024-02-26T06:37:18;100759.66;;;1.16;100.00
35435;BME280;21556;55.782;37.528;2024-02-26T06:40:08;100766.94;;;0.62;100.00
35435;BME280;21556;55.782;37.528;2024-02-26T06:42:49;100763.56;;;1.48;100.00
35435;BME280;21556;55.782;37.528;2024-02-26T06:45:17;100759.47;;;1.27;100.00
35435;BME280;21556;55.782;37.528;2024-02-26T06:47:51;100770.63;;;0.77;100.00
35435;BME280;21556;55.782;37.528;2024-02-26T06:50:17;100777.00;;;0.82;100.00
35435;BME280;21556;55.782;37.528;2024-02-26T06:52:44;100761.97;;;1.25;100.00
35435;BME280;21556;55.782;37.528;2024-02-26T06:55:12;100771.72;;;0.92;100.00
35435;BME280;21556;55.782;37.528;2024-02-26T06:57:39;100774.06;;;0.89;100.00
35435;BME280;21556;55.782;37.528;2024-02-26T07:00:05;100772.13;;;1.10;100.00
35435;BME280;21556;55.782;37.528;2024-02-26T07:02:31;100756.09;;;1.03;100.00
35435;BME280;21556;55.782;37.528;2024-02-26T07:04:57;100763.00;;;1.15;100.00
35435;BME280;21556;55.782;37.528;2024-02-26T07:07:24;100764.25;;;1.20;100.00
35435;BME280;21556;55.782;37.528;2024-02-26T07:13:56;100755.59;;;1.45;100.00
35435;BME280;21556;55.782;37.528;2024-02-26T07:16:25;100749.50;;;1.19;100.00
35435;BME280;21556;55.782;37.528;2024-02-26T07:18:52;100739.94;;;1.55;100.00
35435;BME280;21556;55.782;37.528;2024-02-26T07:21:18;100751.13;;;1.42;100.00
35435;BME280;21556;55.782;37.528;2024-02-26T07:24:03;100742.94;;;1.86;100.00
35435;BME280;21556;55.782;37.528;2024-02-26T07:26:29;100755.03;;;1.49;100.00
35435;BME280;21556;55.782;37.528;2024-02-26T07:28:56;100747.69;;;1.80;100.00
35435;BME280;21556;55.782;37.528;2024-02-26T07:31:22;100741.16;;;1.99;100.00
35435;BME280;21556;55.782;37.528;2024-02-26T07:33:48;100750.56;;;1.72;100.00
35435;BME280;21556;55.782;37.528;2024-02-26T07:36:15;100749.44;;;2.06;100.00
35435;BME280;21556;55.782;37.528;2024-02-26T07:38:41;100741.66;;;2.06;100.00
35435;BME280;21556;55.782;37.528;2024-02-26T07:41:09;100742.94;;;2.00;100.00
35435;BME280;21556;55.782;37.528;2024-02-26T07:43:38;100747.69;;;2.19;100.00
35435;BME280;21556;55.782;37.528;2024-02-26T07:46:05;100754.41;;;2.03;100.00
35435;BME280;21556;55.782;37.528;2024-02-26T07:48:31;100746.50;;;2.53;100.00
35435;BME280;21556;55.782;37.528;2024-02-26T07:51:00;100746.91;;;2.33;100.00
35435;BME280;21556;55.782;37.528;2024-02-26T07:53:31;100745.50;;;2.51;100.00
35435;BME280;21556;55.782;37.528;2024-02-26T07:55:59;100749.47;;;2.46;100.00
35435;BME280;21556;55.782;37.528;2024-02-26T07:58:25;100746.38;;;2.38;100.00
35435;BME280;21556;55.782;37.528;2024-02-26T08:00:51;100749.00;;;1.87;100.00
35435;BME280;21556;55.782;37.528;2024-02-26T08:03:17;100747.59;;;2.30;100.00
35435;BME280;21556;55.782;37.528;2024-02-26T08:05:46;100743.81;;;2.52;100.00
35435;BME280;21556;55.782;37.528;2024-02-26T08:08:12;100740.81;;;2.46;100.00
35435;BME280;21556;55.782;37.528;2024-02-26T08:10:41;100736.72;;;2.23;100.00
35435;BME280;21556;55.782;37.528;2024-02-26T08:13:10;100748.72;;;1.96;100.00
35435;BME280;21556;55.782;37.528;2024-02-26T08:15:37;100749.81;;;1.86;100.00
35435;BME280;21556;55.782;37.528;2024-02-26T08:18:08;100740.78;;;2.06;100.00
35435;BME280;21556;55.782;37.528;2024-02-26T08:20:34;100746.72;;;1.91;100.00
35435;BME280;21556;55.782;37.528;2024-02-26T08:23:03;100733.78;;;1.91;100.00
35435;BME280;21556;55.782;37.528;2024-02-26T08:25:29;100737.22;;;2.30;100.00
35435;BME280;21556;55.782;37.528;2024-02-26T08:27:58;100732.78;;;1.89;100.00
35435;BME280;21556;55.782;37.528;2024-02-26T08:30:24;100731.84;;;1.76;100.00
35435;BME280;21556;55.782;37.528;2024-02-26T08:32:50;100738.84;;;1.90;100.00
35435;BME280;21556;55.782;37.528;2024-02-26T08:35:16;100729.16;;;2.39;100.00
35435;BME280;21556;55.782;37.528;2024-02-26T08:37:46;100742.22;;;2.40;100.00
35435;BME280;21556;55.782;37.528;2024-02-26T08:40:13;100718.59;;;2.49;100.00
35435;BME280;21556;55.782;37.528;2024-02-26T08:42:39;100715.34;;;3.06;100.00
35435;BME280;21556;55.782;37.528;2024-02-26T08:45:05;100718.56;;;2.76;100.00
35435;BME280;21556;55.782;37.528;2024-02-26T08:47:32;100700.41;;;2.89;100.00
35435;BME280;21556;55.782;37.528;2024-02-26T08:49:58;100703.31;;;3.50;100.00
35435;BME280;21556;55.782;37.528;2024-02-26T08:52:25;100704.41;;;3.53;100.00
35435;BME280;21556;55.782;37.528;2024-02-26T08:54:51;100707.13;;;3.13;100.00
35435;BME280;21556;55.782;37.528;2024-02-26T08:57:17;100699.91;;;2.95;100.00
35435;BME280;21556;55.782;37.528;2024-02-26T08:59:43;100704.38;;;3.38;100.00
35435;BME280;21556;55.782;37.528;2024-02-26T09:02:11;100699.59;;;3.03;100.00
35435;BME280;21556;55.782;37.528;2024-02-26T09:04:37;100715.19;;;2.77;100.00
35435;BME280;21556;55.782;37.528;2024-02-26T09:07:03;100704.25;;;3.37;100.00
35435;BME280;21556;55.782;37.528;2024-02-26T09:09:29;100698.53;;;3.71;100.00
35435;BME280;21556;55.782;37.528;2024-02-26T09:11:58;100722.75;;;3.28;100.00
35435;BME280;21556;55.782;37.528;2024-02-26T09:14:24;100703.97;;;3.60;100.00
35435;BME280;21556;55.782;37.528;2024-02-26T09:16:53;100709.03;;;3.59;100.00
35435;BME280;21556;55.782;37.528;2024-02-26T09:19:19;100701.88;;;3.55;100.00
35435;BME280;21556;55.782;37.528;2024-02-26T09:24:30;100712.81;;;3.08;100.00
35435;BME280;21556;55.782;37.528;2024-02-26T09:26:56;100705.72;;;2.91;100.00
35435;BME280;21556;55.782;37.528;2024-02-26T09:29:24;100711.63;;;3.16;100.00
35435;BME280;21556;55.782;37.528;2024-02-26T09:31:52;100711.53;;;2.73;100.00
35435;BME280;21556;55.782;37.528;2024-02-26T09:34:18;100722.41;;;3.09;100.00
35435;BME280;21556;55.782;37.528;2024-02-26T09:36:44;100723.63;;;3.01;100.00
35435;BME280;21556;55.782;37.528;2024-02-26T09:39:11;100707.47;;;3.33;100.00
35435;BME280;21556;55.782;37.528;2024-02-26T09:41:37;100708.03;;;3.42;100.00
35435;BME280;21556;55.782;37.528;2024-02-26T09:44:04;100724.16;;;2.82;100.00
35435;BME280;21556;55.782;37.528;2024-02-26T09:46:33;100700.03;;;3.24;100.00
35435;BME280;21556;55.782;37.528;2024-02-26T09:49:00;100698.09;;;3.35;100.00
35435;BME280;21556;55.782;37.528;2024-02-26T09:51:26;100710.91;;;3.47;100.00
35435;BME280;21556;55.782;37.528;2024-02-26T09:53:52;100705.50;;;3.72;100.00
35435;BME280;21556;55.782;37.528;2024-02-26T09:56:19;100702.47;;;4.08;100.00
35435;BME280;21556;55.782;37.528;2024-02-26T09:58:47;100696.50;;;4.55;100.00
35435;BME280;21556;55.782;37.528;2024-02-26T10:01:32;100696.88;;;4.32;100.00
35435;BME280;21556;55.782;37.528;2024-02-26T10:04:00;100693.66;;;4.51;100.00
35435;BME280;21556;55.782;37.528;2024-02-26T10:06:26;100699.03;;;4.54;100.00
35435;BME280;21556;55.782;37.528;2024-02-26T10:09:12;100699.59;;;4.19;100.00
35435;BME280;21556;55.782;37.528;2024-02-26T10:11:43;100706.41;;;3.44;100.00
35435;BME280;21556;55.782;37.528;2024-02-26T10:14:10;100700.03;;;3.67;100.00
35435;BME280;21556;55.782;37.528;2024-02-26T10:16:37;100694.50;;;3.91;100.00
35435;BME280;21556;55.782;37.528;2024-02-26T10:19:03;100691.50;;;3.55;100.00
35435;BME280;21556;55.782;37.528;2024-02-26T10:21:30;100694.31;;;3.88;100.00
35435;BME280;21556;55.782;37.528;2024-02-26T10:23:56;100685.81;;;3.32;100.00
35435;BME280;21556;55.782;37.528;2024-02-26T10:26:22;100690.66;;;3.99;100.00
35435;BME280;21556;55.782;37.528;2024-02-26T10:28:48;100682.78;;;3.97;100.00
35435;BME280;21556;55.782;37.528;2024-02-26T10:31:14;100672.50;;;4.45;100.00
35435;BME280;21556;55.782;37.528;2024-02-26T10:33:42;100677.09;;;4.34;100.00
35435;BME280;21556;55.782;37.528;2024-02-26T10:36:09;100670.19;;;4.80;100.00
35435;BME280;21556;55.782;37.528;2024-02-26T10:38:36;100693.69;;;4.06;100.00
35435;BME280;21556;55.782;37.528;2024-02-26T10:41:06;100691.19;;;4.69;100.00
35435;BME280;21556;55.782;37.528;2024-02-26T10:43:32;100676.22;;;4.19;100.00
35435;BME280;21556;55.782;37.528;2024-02-26T10:45:58;100684.19;;;4.37;100.00
35435;BME280;21556;55.782;37.528;2024-02-26T10:48:25;100674.56;;;4.50;100.00
35435;BME280;21556;55.782;37.528;2024-02-26T10:50:51;100676.78;;;4.59;100.00
35435;BME280;21556;55.782;37.528;2024-02-26T10:53:22;100673.66;;;3.89;100.00
35435;BME280;21556;55.782;37.528;2024-02-26T10:55:54;100673.03;;;4.39;100.00
35435;BME280;21556;55.782;37.528;2024-02-26T10:58:21;100676.69;;;3.82;100.00
35435;BME280;21556;55.782;37.528;2024-02-26T11:00:50;100664.69;;;3.99;100.00
35435;BME280;21556;55.782;37.528;2024-02-26T11:03:16;100670.91;;;4.32;100.00
35435;BME280;21556;55.782;37.528;2024-02-26T11:05:49;100673.59;;;4.48;100.00
35435;BME280;21556;55.782;37.528;2024-02-26T11:08:22;100667.88;;;3.50;100.00
35435;BME280;21556;55.782;37.528;2024-02-26T11:10:55;100666.59;;;3.29;100.00
35435;BME280;21556;55.782;37.528;2024-02-26T11:13:23;100658.84;;;3.44;100.00
35435;BME280;21556;55.782;37.528;2024-02-26T11:15:52;100658.84;;;3.58;100.00
35435;BME280;21556;55.782;37.528;2024-02-26T11:18:22;100666.72;;;3.45;100.00
35435;BME280;21556;55.782;37.528;2024-02-26T11:21:05;100670.13;;;3.59;100.00
35435;BME280;21556;55.782;37.528;2024-02-26T11:27:33;100657.00;;;3.85;100.00
35435;BME280;21556;55.782;37.528;2024-02-26T11:30:52;100662.16;;;4.15;100.00
35435;BME280;21556;55.782;37.528;2024-02-26T11:34:01;100653.59;;;4.01;100.00
35435;BME280;21556;55.782;37.528;2024-02-26T11:36:27;100658.66;;;4.29;100.00
35435;BME280;21556;55.782;37.528;2024-02-26T11:38:55;100643.09;;;4.46;100.00
35435;BME280;21556;55.782;37.528;2024-02-26T11:41:20;100651.13;;;4.34;100.00
35435;BME280;21556;55.782;37.528;2024-02-26T11:44:01;100647.13;;;3.95;100.00
35435;BME280;21556;55.782;37.528;2024-02-26T11:46:29;100648.56;;;4.04;100.00
35435;BME280;21556;55.782;37.528;2024-02-26T11:49:02;100639.94;;;4.20;100.00
35435;BME280;21556;55.782;37.528;2024-02-26T11:51:33;100631.78;;;4.60;100.00
35435;BME280;21556;55.782;37.528;2024-02-26T11:54:00;100647.78;;;3.91;100.00
35435;BME280;21556;55.782;37.528;2024-02-26T11:56:26;100644.47;;;3.93;100.00
35435;BME280;21556;55.782;37.528;2024-02-26T11:58:56;100642.66;;;4.07;100.00
35435;BME280;21556;55.782;37.528;2024-02-26T12:02:00;100641.47;;;4.17;100.00
35435;BME280;21556;55.782;37.528;2024-02-26T12:04:30;100645.13;;;4.20;100.00
35435;BME280;21556;55.782;37.528;2024-02-26T12:06:58;100640.47;;;4.29;100.00
35435;BME280;21556;55.782;37.528;2024-02-26T12:09:42;100635.06;;;4.41;100.00
35435;BME280;21556;55.782;37.528;2024-02-26T12:12:09;100642.50;;;3.89;100.00
35435;BME280;21556;55.782;37.528;2024-02-26T12:14:41;100636.47;;;4.20;100.00
35435;BME280;21556;55.782;37.528;2024-02-26T12:17:20;100627.06;;;4.53;100.00
35435;BME280;21556;55.782;37.528;2024-02-26T12:19:46;100621.47;;;4.30;100.00
35435;BME280;21556;55.782;37.528;2024-02-26T12:22:13;100637.47;;;4.07;100.00
35435;BME280;21556;55.782;37.528;2024-02-26T12:24:39;100628.34;;;3.84;100.00
35435;BME280;21556;55.782;37.528;2024-02-26T12:27:06;100631.47;;;4.08;100.00
35435;BME280;21556;55.782;37.528;2024-02-26T12:29:32;100648.84;;;3.94;100.00
35435;BME280;21556;55.782;37.528;2024-02-26T12:31:58;100639.25;;;4.08;100.00
35435;BME280;21556;55.782;37.528;2024-02-26T12:34:24;100632.22;;;4.37;100.00
35435;BME280;21556;55.782;37.528;2024-02-26T12:36:50;100631.97;;;4.17;100.00
35435;BME280;21556;55.782;37.528;2024-02-26T12:39:16;100635.84;;;3.94;100.00
35435;BME280;21556;55.782;37.528;2024-02-26T12:41:46;100634.34;;;3.53;100.00
35435;BME280;21556;55.782;37.528;2024-02-26T12:44:18;100628.53;;;3.72;100.00
35435;BME280;21556;55.782;37.528;2024-02-26T12:46:44;100618.38;;;4.06;100.00
35435;BME280;21556;55.782;37.528;2024-02-26T12:49:16;100623.34;;;4.33;100.00
35435;BME280;21556;55.782;37.528;2024-02-26T12:51:45;100624.31;;;4.35;100.00
35435;BME280;21556;55.782;37.528;2024-02-26T12:54:12;100626.25;;;4.23;100.00
35435;BME280;21556;55.782;37.528;2024-02-26T12:56:39;100630.56;;;4.22;100.00
35435;BME280;21556;55.782;37.528;2024-02-26T12:59:05;100624.31;;;4.04;100.00